Archival Weather

Chicago O'Hare International

Chicago, Illinois (KORD)

Report from: Wednesday, December 28, 2022 10:51 PM CST
Current time: Friday, June 14, 2024 7:03 AM CDT

Current weather – Weather history – Daily summaries
Weather forecast

Temperature6.7°C (44.1°F)
Wind chill2.6°C (36.7°F)
Dew point2.2°C (36.0°F)
Winds 14 kts (7.2 m/s, 16.1 mph) South (190°)
Wind gusts 28 kts (14.4 m/s, 32.2 mph)
Peak wind 28 kts (14.4 m/s, 32.2 mph) South (190°) at 04:48
Visibility10 mi. (16.1 km)
Clouds Scattered clouds 15,000 ft. (4,572 m)
Ceiling: Broken clouds 30,000 ft. (9,144 m)
Altimeter29.77 in.Hg (1008 mB)
Relative humidity73 %
Density altitude-727 ft. (-222 m)
Sea-level pressure100.8 kPa (1008 mB, 29.78 in.Hg)
Remarks Automated weather observing station with precipitation discriminator
Flight conditions Visual Meteorological Conditions
Raw dataKORD 290451Z 19014G28KT 10SM SCT150 BKN300 07/02 A2977 RMK AO2 PK WND 19028/0448 SLP084 T00670022
An error has occurred. This application may no longer respond until reloaded. Reload 🗙